Terminal Aerodrome Forecast
Issued by NWS

Home | Current Version | Previous Version | Text Only | Print | Product List | Glossary On
Versions: 1 2 3 4 5 6 7 8 9 10 11 12 13 14 15 16 17 18 19 20 21 22 23 24 25 26 27 28
000
FTUS42 KFFC 300500
TAFPDK
TAF
KPDK 300526Z 3006/0106 00000KT 4SM -DZ BR BKN006
      TEMPO 3009/3012 2SM -DZ BR BKN004
     FM301400 00000KT P6SM SCT010
     FM301800 02003KT P6SM FEW040
     FM302200 VRB03KT P6SM FEW100=

USA.gov is the U.S. government's official web portal to all federal, state and local government web resources and services.